createdAt,value
2024-05-09T00:00:03.740Z,59.06
2024-05-09T00:00:18.608Z,59.06
2024-05-09T00:00:30.757Z,58.96
2024-05-09T00:00:39.054Z,58.96
2024-05-09T00:00:46.003Z,58.96
2024-05-09T00:00:55.139Z,58.75
2024-05-09T00:01:05.414Z,58.55
2024-05-09T00:01:15.792Z,58.55
2024-05-09T00:01:26.081Z,58.45
2024-05-09T00:01:36.461Z,58.45
2024-05-09T00:01:46.829Z,58.55
2024-05-09T00:01:57.204Z,58.45
2024-05-09T00:02:07.510Z,58.45
2024-05-09T00:02:17.769Z,58.45
2024-05-09T00:02:28.082Z,58.45
2024-05-09T00:02:38.366Z,58.45
2024-05-09T00:02:48.633Z,58.45
2024-05-09T00:02:58.943Z,58.34
2024-05-09T00:03:10.764Z,58.34
2024-05-09T00:03:19.553Z,58.34
2024-05-09T00:03:29.894Z,58.45
2024-05-09T00:03:40.151Z,58.55
2024-05-09T00:03:50.471Z,58.55
2024-05-09T00:04:00.829Z,58.45
2024-05-09T00:04:11.179Z,58.45
2024-05-09T00:04:21.475Z,58.45
2024-05-09T00:04:31.742Z,58.55
2024-05-09T00:04:42.060Z,58.45
2024-05-09T00:04:52.398Z,58.45
2024-05-09T00:05:02.803Z,58.45
2024-05-09T00:05:13.229Z,58.45
2024-05-09T00:05:23.373Z,58.45
2024-05-09T00:05:33.699Z,58.45
2024-05-09T00:05:44.437Z,58.45
2024-05-09T00:05:54.395Z,58.45
2024-05-09T00:06:04.727Z,58.45
2024-05-09T00:06:15.100Z,58.34
2024-05-09T00:06:25.356Z,58.34
2024-05-09T00:06:35.600Z,58.34
2024-05-09T00:06:45.885Z,58.34
2024-05-09T00:06:56.134Z,58.14
2024-05-09T00:07:06.453Z,58.04
2024-05-09T00:07:16.701Z,58.04
2024-05-09T00:07:26.967Z,58.04
2024-05-09T00:07:37.227Z,58.14
2024-05-09T00:07:47.588Z,58.14
2024-05-09T00:07:57.863Z,58.25
2024-05-09T00:08:08.168Z,58.25
2024-05-09T00:08:18.424Z,58.34
2024-05-09T00:08:28.834Z,58.34
2024-05-09T00:08:38.980Z,58.34
2024-05-09T00:08:49.237Z,58.34
2024-05-09T00:08:59.511Z,58.34
2024-05-09T00:09:09.748Z,58.45
2024-05-09T00:09:20.026Z,58.55
2024-05-09T00:09:30.271Z,58.55
2024-05-09T00:09:40.531Z,58.65
2024-05-09T00:09:50.787Z,58.65
2024-05-09T00:10:01.133Z,58.68
2024-05-09T00:10:18.299Z,58.68
2024-05-09T00:10:29.262Z,58.68
2024-05-09T00:10:40.735Z,58.68
2024-05-09T00:10:42.374Z,58.78
2024-05-09T00:10:52.715Z,58.89
2024-05-09T00:11:03.140Z,58.89
2024-05-09T00:11:13.534Z,58.78
2024-05-09T00:11:23.956Z,58.78
2024-05-09T00:11:44.749Z,58.68
2024-05-09T00:11:55.102Z,58.58
2024-05-09T00:12:05.677Z,58.48
2024-05-09T00:12:15.908Z,58.37
2024-05-09T00:12:26.131Z,58.37
2024-05-09T00:12:36.397Z,58.27
2024-05-09T00:12:46.652Z,58.27
2024-05-09T00:12:56.916Z,58.17
2024-05-09T00:13:07.602Z,58.27
2024-05-09T00:13:17.619Z,58.37
2024-05-09T00:13:27.878Z,58.37
2024-05-09T00:13:38.138Z,58.37
2024-05-09T00:13:48.415Z,58.37
2024-05-09T00:13:58.686Z,58.37
2024-05-09T00:14:08.951Z,58.27
2024-05-09T00:14:19.209Z,58.17
2024-05-09T00:14:29.489Z,58.17
2024-05-09T00:14:39.811Z,58.27
2024-05-09T00:14:50.042Z,58.27
2024-05-09T00:15:00.340Z,58.17
2024-05-09T00:15:10.582Z,58.17
2024-05-09T00:15:20.829Z,58.17
2024-05-09T00:15:31.080Z,58.07
2024-05-09T00:15:41.354Z,58.17
2024-05-09T00:15:51.607Z,58.27
2024-05-09T00:16:01.846Z,58.37
2024-05-09T00:16:12.109Z,58.58
2024-05-09T00:16:22.365Z,58.58
2024-05-09T00:16:32.608Z,58.48
2024-05-09T00:16:42.971Z,58.48
2024-05-09T00:16:53.267Z,58.37
2024-05-09T00:17:03.582Z,58.37
2024-05-09T00:17:13.917Z,58.37
2024-05-09T00:17:24.581Z,58.48
2024-05-09T00:17:34.772Z,58.58
2024-05-09T00:17:45.361Z,58.68
2024-05-09T00:17:55.710Z,58.58
2024-05-09T00:18:06.442Z,58.58
2024-05-09T00:18:16.303Z,58.48
2024-05-09T00:18:26.589Z,58.37
2024-05-09T00:18:36.685Z,58.37
2024-05-09T00:18:47.052Z,58.37
2024-05-09T00:18:57.467Z,58.37
2024-05-09T00:19:07.796Z,58.27
2024-05-09T00:19:18.255Z,58.27
2024-05-09T00:19:28.626Z,58.27
2024-05-09T00:19:39.029Z,58.27
2024-05-09T00:19:49.327Z,58.37
2024-05-09T00:19:59.628Z,58.37
2024-05-09T00:20:17.492Z,58.37
2024-05-09T00:20:28.091Z,58.37
2024-05-09T00:20:37.976Z,58.50
2024-05-09T00:20:41.927Z,58.61
2024-05-09T00:20:51.353Z,58.61
2024-05-09T00:21:01.799Z,58.58
2024-05-09T00:21:11.926Z,58.50
2024-05-09T00:21:22.185Z,58.61
2024-05-09T00:21:32.426Z,58.70
2024-05-09T00:21:42.692Z,58.81
2024-05-09T00:21:52.948Z,58.91
2024-05-09T00:22:03.222Z,58.91
2024-05-09T00:22:13.505Z,58.91
2024-05-09T00:22:23.736Z,58.91
2024-05-09T00:22:33.984Z,59.01
2024-05-09T00:22:44.314Z,59.01
2024-05-09T00:22:54.606Z,59.01
2024-05-09T00:23:04.846Z,58.91
2024-05-09T00:23:15.178Z,58.81
2024-05-09T00:23:25.511Z,58.61
2024-05-09T00:24:16.727Z,58.70
2024-05-09T00:24:26.972Z,58.70
2024-05-09T00:24:37.206Z,58.61
2024-05-09T00:24:47.467Z,58.50
2024-05-09T00:24:57.721Z,58.50
2024-05-09T00:25:07.975Z,58.50
2024-05-09T00:25:18.225Z,58.50
2024-05-09T00:25:28.482Z,58.50
2024-05-09T00:25:38.762Z,58.40
2024-05-09T00:25:49.032Z,58.40
2024-05-09T00:25:59.363Z,58.50
2024-05-09T00:26:09.629Z,58.70
2024-05-09T00:26:19.981Z,58.81
2024-05-09T00:26:30.376Z,58.81
2024-05-09T00:26:40.641Z,58.81
2024-05-09T00:26:50.884Z,58.70
2024-05-09T00:27:01.136Z,58.61
2024-05-09T00:27:13.367Z,58.61
2024-05-09T00:27:21.851Z,58.50
2024-05-09T00:27:32.108Z,58.50
2024-05-09T00:27:42.631Z,58.61
2024-05-09T00:27:52.707Z,58.70
2024-05-09T00:28:03.026Z,58.81
2024-05-09T00:28:13.386Z,58.81
2024-05-09T00:28:23.649Z,58.81
2024-05-09T00:28:33.910Z,58.70
2024-05-09T00:28:44.226Z,58.61
2024-05-09T00:28:54.530Z,58.50
2024-05-09T00:29:04.781Z,58.50
2024-05-09T00:29:15.045Z,58.40
2024-05-09T00:29:25.454Z,58.40
2024-05-09T00:29:35.759Z,58.29
2024-05-09T00:29:45.993Z,58.29
2024-05-09T00:29:56.236Z,58.29
2024-05-09T00:30:07.417Z,58.29
2024-05-09T00:30:24.360Z,58.40
2024-05-09T00:30:34.028Z,58.50
2024-05-09T00:30:38.485Z,58.50
2024-05-09T00:30:47.872Z,58.40
2024-05-09T00:30:58.132Z,58.40
2024-05-09T00:31:08.392Z,58.40
2024-05-09T00:31:18.648Z,58.29
2024-05-09T00:31:28.912Z,58.20
2024-05-09T00:31:39.155Z,58.09
2024-05-09T00:31:49.504Z,58.09
2024-05-09T00:31:59.903Z,58.20
2024-05-09T00:32:10.281Z,58.20
2024-05-09T00:32:20.626Z,58.29
2024-05-09T00:32:31.075Z,58.29
2024-05-09T00:32:41.495Z,58.29
2024-05-09T00:32:52.180Z,58.33
2024-05-09T00:33:02.287Z,58.33
2024-05-09T00:33:12.568Z,58.22
2024-05-09T00:33:22.958Z,58.22
2024-05-09T00:33:33.361Z,58.22
2024-05-09T00:33:43.574Z,58.33
2024-05-09T00:33:53.913Z,58.33
2024-05-09T00:34:04.332Z,58.43
2024-05-09T00:34:14.716Z,58.43
2024-05-09T00:34:25.022Z,58.43
2024-05-09T00:34:35.295Z,58.43
2024-05-09T00:34:45.552Z,58.33
2024-05-09T00:34:55.807Z,58.33
2024-05-09T00:35:06.113Z,58.43
2024-05-09T00:35:16.381Z,58.43
2024-05-09T00:35:26.668Z,58.43
2024-05-09T00:35:36.988Z,58.53
2024-05-09T00:35:47.327Z,58.53
2024-05-09T00:35:57.560Z,58.53
2024-05-09T00:36:07.813Z,58.53
2024-05-09T00:36:18.294Z,58.53
2024-05-09T00:36:28.457Z,58.43
2024-05-09T00:36:38.710Z,58.33
2024-05-09T00:36:48.970Z,58.33
2024-05-09T00:36:59.220Z,58.33
2024-05-09T00:37:09.475Z,58.43
2024-05-09T00:37:19.729Z,58.43
2024-05-09T00:37:29.982Z,58.43
2024-05-09T00:37:40.237Z,58.43
2024-05-09T00:37:50.519Z,58.43
2024-05-09T00:38:01.243Z,58.53
2024-05-09T00:38:11.243Z,58.53
2024-05-09T00:38:21.593Z,58.53
2024-05-09T00:38:31.997Z,58.53
2024-05-09T00:38:42.256Z,58.43
2024-05-09T00:38:52.499Z,58.43
2024-05-09T00:39:02.764Z,58.53
2024-05-09T00:39:13.008Z,58.53
2024-05-09T00:39:23.267Z,58.63
2024-05-09T00:39:33.515Z,58.63
2024-05-09T00:39:43.765Z,58.53
2024-05-09T00:39:54.043Z,58.53
2024-05-09T00:40:05.789Z,58.53
2024-05-09T00:40:22.486Z,58.53
2024-05-09T00:40:34.687Z,58.53
2024-05-09T00:40:40.134Z,58.53
2024-05-09T00:40:46.718Z,58.53
2024-05-09T00:40:56.099Z,58.53
2024-05-09T00:41:06.428Z,58.53
2024-05-09T00:41:19.545Z,58.53
2024-05-09T00:41:26.990Z,58.43
2024-05-09T00:41:37.393Z,58.43
2024-05-09T00:41:47.691Z,58.43
2024-05-09T00:41:57.940Z,58.53
2024-05-09T00:42:08.194Z,58.53
2024-05-09T00:42:18.448Z,58.53
2024-05-09T00:42:28.705Z,58.53
2024-05-09T00:42:38.970Z,58.56
2024-05-09T00:42:49.269Z,58.53
2024-05-09T00:42:59.615Z,58.53
2024-05-09T00:43:10.233Z,58.43
2024-05-09T00:43:20.128Z,58.45
2024-05-09T00:43:30.395Z,58.45
2024-05-09T00:43:40.633Z,58.56
2024-05-09T00:43:50.916Z,58.66
2024-05-09T00:44:01.245Z,58.66
2024-05-09T00:44:11.573Z,58.66
2024-05-09T00:44:21.885Z,58.66
2024-05-09T00:44:32.199Z,58.66
2024-05-09T00:44:42.425Z,58.76
2024-05-09T00:44:52.772Z,58.76
2024-05-09T00:45:03.048Z,58.76
2024-05-09T00:45:13.294Z,58.86
2024-05-09T00:45:23.536Z,58.86
2024-05-09T00:45:33.834Z,58.86
2024-05-09T00:45:44.400Z,58.86
2024-05-09T00:45:54.435Z,58.86
2024-05-09T00:46:04.677Z,58.86
2024-05-09T00:46:14.930Z,58.86
2024-05-09T00:46:25.254Z,58.86
2024-05-09T00:46:35.512Z,58.86
2024-05-09T00:46:45.826Z,58.86
2024-05-09T00:46:56.144Z,58.86
2024-05-09T00:47:06.779Z,58.76
2024-05-09T00:47:16.949Z,58.76
2024-05-09T00:47:27.418Z,58.76
2024-05-09T00:47:37.808Z,58.86
2024-05-09T00:47:48.504Z,58.86
2024-05-09T00:47:58.692Z,58.97
2024-05-09T00:48:10.049Z,59.17
2024-05-09T00:48:21.380Z,59.17
2024-05-09T00:48:29.705Z,59.27
2024-05-09T00:48:39.905Z,59.27
2024-05-09T00:48:50.132Z,59.27
2024-05-09T00:49:00.442Z,59.17
2024-05-09T00:49:10.848Z,59.07
2024-05-09T00:49:21.347Z,59.07
2024-05-09T00:49:31.622Z,58.97
2024-05-09T00:49:42.220Z,58.97
2024-05-09T00:49:52.352Z,58.97
2024-05-09T00:50:04.138Z,59.07
2024-05-09T00:50:19.224Z,59.07
2024-05-09T00:50:30.006Z,58.97
2024-05-09T00:50:36.903Z,59.07
2024-05-09T00:50:44.166Z,59.07
2024-05-09T00:50:54.567Z,59.17
2024-05-09T00:51:04.826Z,59.17
2024-05-09T00:51:15.101Z,59.17
2024-05-09T00:51:25.337Z,59.17
2024-05-09T00:51:35.577Z,59.07
2024-05-09T00:51:45.836Z,58.97
2024-05-09T00:51:56.098Z,58.97
2024-05-09T00:52:06.342Z,58.86
2024-05-09T00:52:16.596Z,58.86
2024-05-09T00:52:26.848Z,58.97
2024-05-09T00:52:37.101Z,59.07
2024-05-09T00:52:47.406Z,59.07
2024-05-09T00:52:57.747Z,59.07
2024-05-09T00:53:08.168Z,59.17
2024-05-09T00:53:18.522Z,59.27
2024-05-09T00:53:28.824Z,59.27
2024-05-09T00:53:39.189Z,59.27
2024-05-09T00:53:49.450Z,59.27
2024-05-09T00:53:59.754Z,59.27
2024-05-09T00:54:11.062Z,59.27
2024-05-09T00:54:20.376Z,59.41
2024-05-09T00:54:30.628Z,59.48
2024-05-09T00:54:41.093Z,59.38
2024-05-09T00:54:51.325Z,59.27
2024-05-09T00:55:01.616Z,59.17
2024-05-09T00:55:11.847Z,59.09
2024-05-09T00:55:22.101Z,59.09
2024-05-09T00:55:32.370Z,59.17
2024-05-09T00:55:42.884Z,59.20
2024-05-09T00:55:52.930Z,59.20
2024-05-09T00:56:03.175Z,59.20
2024-05-09T00:56:13.433Z,59.30
2024-05-09T00:56:23.758Z,59.30
2024-05-09T00:56:34.043Z,59.30
2024-05-09T00:56:44.261Z,59.41
2024-05-09T00:56:54.516Z,59.50
2024-05-09T00:57:04.792Z,59.71
2024-05-09T00:57:15.022Z,59.71
2024-05-09T00:57:25.273Z,59.71
2024-05-09T00:57:35.531Z,59.61
2024-05-09T00:57:45.782Z,59.50
2024-05-09T00:57:56.039Z,59.50
2024-05-09T00:58:06.304Z,59.41
2024-05-09T00:58:16.571Z,59.50
2024-05-09T00:58:26.884Z,59.41
2024-05-09T00:58:37.134Z,59.41
2024-05-09T00:58:47.462Z,59.41
2024-05-09T00:58:57.725Z,59.41
2024-05-09T00:59:08.012Z,59.41
2024-05-09T00:59:18.340Z,59.41
2024-05-09T00:59:28.621Z,59.30
2024-05-09T00:59:38.910Z,59.30
2024-05-09T00:59:49.133Z,59.30
2024-05-09T00:59:59.390Z,59.41
2024-05-09T01:00:22.181Z,59.41
2024-05-09T01:00:27.316Z,59.50
2024-05-09T01:00:38.247Z,59.61
2024-05-09T01:00:42.060Z,59.61
2024-05-09T01:00:51.056Z,59.71
2024-05-09T01:01:01.408Z,59.71
2024-05-09T01:01:13.356Z,59.81
2024-05-09T01:01:22.029Z,59.92
2024-05-09T01:01:32.363Z,59.92
2024-05-09T01:01:42.817Z,59.92
2024-05-09T01:01:53.023Z,59.81
2024-05-09T01:02:03.443Z,59.61
2024-05-09T01:02:13.887Z,59.50
2024-05-09T01:02:24.073Z,59.41
2024-05-09T01:02:34.408Z,59.30
2024-05-09T01:02:44.897Z,59.20
2024-05-09T01:02:55.045Z,59.20
2024-05-09T01:03:05.943Z,59.09
2024-05-09T01:03:15.962Z,59.20
2024-05-09T01:03:27.787Z,59.30
2024-05-09T01:03:36.521Z,59.41
2024-05-09T01:03:49.551Z,59.41
2024-05-09T01:03:57.236Z,59.41
2024-05-09T01:04:07.477Z,59.41
2024-05-09T01:04:17.800Z,59.41
2024-05-09T01:04:28.074Z,59.41
2024-05-09T01:04:38.416Z,59.41
2024-05-09T01:04:48.979Z,59.41
2024-05-09T01:04:59.198Z,59.41
2024-05-09T01:05:09.581Z,59.41
2024-05-09T01:05:19.841Z,59.30
2024-05-09T01:05:30.128Z,59.30
2024-05-09T01:05:40.855Z,59.20
2024-05-09T01:05:50.987Z,59.30
2024-05-09T01:06:01.252Z,59.41
2024-05-09T01:06:11.504Z,59.41
2024-05-09T01:06:21.756Z,59.50
2024-05-09T01:06:32.014Z,59.50
2024-05-09T01:06:42.266Z,59.41
2024-05-09T01:06:52.525Z,59.30
2024-05-09T01:07:02.775Z,59.30
2024-05-09T01:07:13.037Z,59.41
2024-05-09T01:07:23.287Z,59.50
2024-05-09T01:07:33.545Z,59.50
2024-05-09T01:07:43.858Z,59.50
2024-05-09T01:07:54.124Z,59.41
2024-05-09T01:08:04.448Z,59.41
2024-05-09T01:08:14.796Z,59.41
2024-05-09T01:08:25.082Z,59.41
2024-05-09T01:08:35.363Z,59.41
2024-05-09T01:08:45.612Z,59.41
2024-05-09T01:08:55.857Z,59.30
2024-05-09T01:09:06.135Z,59.20
2024-05-09T01:09:16.378Z,59.23
2024-05-09T01:09:26.633Z,59.33
2024-05-09T01:09:36.873Z,59.43
2024-05-09T01:09:47.124Z,59.43
2024-05-09T01:09:57.380Z,59.43
2024-05-09T01:10:13.995Z,59.41
2024-05-09T01:10:27.565Z,59.53
2024-05-09T01:10:34.160Z,59.53
2024-05-09T01:10:41.666Z,59.43
2024-05-09T01:10:49.113Z,59.53
2024-05-09T01:10:59.439Z,59.64
2024-05-09T01:11:09.813Z,59.74
2024-05-09T01:11:20.188Z,59.84
2024-05-09T01:11:30.602Z,59.84
2024-05-09T01:11:40.926Z,59.84
2024-05-09T01:11:51.290Z,59.74
2024-05-09T01:12:01.724Z,59.74
2024-05-09T01:12:12.159Z,59.64
2024-05-09T01:12:22.608Z,59.64
2024-05-09T01:12:32.935Z,59.53
2024-05-09T01:12:43.229Z,59.43
2024-05-09T01:12:53.475Z,59.43
2024-05-09T01:13:03.777Z,59.43
2024-05-09T01:13:14.102Z,59.33
2024-05-09T01:13:24.379Z,59.33
2024-05-09T01:13:34.616Z,59.23
2024-05-09T01:13:45.005Z,59.33
2024-05-09T01:13:55.351Z,59.33
2024-05-09T01:14:05.643Z,59.33
2024-05-09T01:14:15.997Z,59.33
2024-05-09T01:14:26.264Z,59.23
2024-05-09T01:14:36.586Z,59.33
2024-05-09T01:14:46.855Z,59.23
2024-05-09T01:14:57.127Z,59.23
2024-05-09T01:15:07.354Z,59.12
2024-05-09T01:15:17.610Z,59.12
2024-05-09T01:15:27.905Z,59.23
2024-05-09T01:15:38.156Z,59.33
2024-05-09T01:15:48.425Z,59.43
2024-05-09T01:15:58.660Z,59.43
2024-05-09T01:16:08.927Z,59.43
2024-05-09T01:16:19.181Z,59.43
2024-05-09T01:16:29.428Z,59.43
2024-05-09T01:16:39.686Z,59.43
2024-05-09T01:16:49.968Z,59.43
2024-05-09T01:17:00.310Z,59.43
2024-05-09T01:17:10.758Z,59.43
2024-05-09T01:17:20.960Z,59.43
2024-05-09T01:17:31.571Z,59.43
2024-05-09T01:17:41.737Z,59.43
2024-05-09T01:17:52.001Z,59.43
2024-05-09T01:18:02.634Z,59.43
2024-05-09T01:18:13.775Z,59.33
2024-05-09T01:18:23.055Z,59.33
2024-05-09T01:18:33.421Z,59.43
2024-05-09T01:18:43.780Z,59.43
2024-05-09T01:18:54.178Z,59.43
2024-05-09T01:19:04.828Z,59.53
2024-05-09T01:19:14.985Z,59.64
2024-05-09T01:19:25.445Z,59.53
2024-05-09T01:19:35.701Z,59.43
2024-05-09T01:19:45.911Z,59.53
2024-05-09T01:19:56.173Z,59.53
2024-05-09T01:20:10.634Z,59.64
2024-05-09T01:20:22.907Z,59.64
2024-05-09T01:20:39.036Z,59.64
2024-05-09T01:20:42.359Z,59.53
2024-05-09T01:20:48.727Z,59.64
2024-05-09T01:20:58.116Z,59.64
2024-05-09T01:21:08.475Z,59.64
2024-05-09T01:21:18.783Z,59.64
2024-05-09T01:21:29.039Z,59.77
2024-05-09T01:21:39.340Z,59.74
2024-05-09T01:21:49.603Z,59.66
2024-05-09T01:21:59.863Z,59.64
2024-05-09T01:22:10.130Z,59.56
2024-05-09T01:22:20.394Z,59.64
2024-05-09T01:22:30.648Z,59.64
2024-05-09T01:22:40.892Z,59.66
2024-05-09T01:22:51.158Z,59.66
2024-05-09T01:23:01.480Z,59.66
2024-05-09T01:23:12.266Z,59.66
2024-05-09T01:23:22.077Z,59.66
2024-05-09T01:23:32.519Z,59.66
2024-05-09T01:23:42.626Z,59.66
2024-05-09T01:23:52.878Z,59.66
2024-05-09T01:24:03.132Z,59.77
2024-05-09T01:24:13.384Z,59.66
2024-05-09T01:24:23.637Z,59.56
2024-05-09T01:24:33.889Z,59.46
2024-05-09T01:24:44.173Z,59.46
2024-05-09T01:24:54.398Z,59.36
2024-05-09T01:25:04.653Z,59.36
2024-05-09T01:25:14.907Z,59.25
2024-05-09T01:25:25.158Z,59.25
2024-05-09T01:25:35.414Z,59.25
2024-05-09T01:25:46.544Z,59.36
2024-05-09T01:25:56.079Z,59.46
2024-05-09T01:26:06.378Z,59.56
2024-05-09T01:26:16.711Z,59.66
2024-05-09T01:26:27.032Z,59.77
2024-05-09T01:26:37.342Z,59.77
2024-05-09T01:26:47.605Z,59.77
2024-05-09T01:26:57.858Z,59.66
2024-05-09T01:27:08.113Z,59.66
2024-05-09T01:27:18.458Z,59.56
2024-05-09T01:27:28.705Z,59.56
2024-05-09T01:27:38.972Z,59.66
2024-05-09T01:27:49.233Z,59.66
2024-05-09T01:27:59.489Z,59.66
2024-05-09T01:28:09.754Z,59.66
2024-05-09T01:28:20.003Z,59.66
2024-05-09T01:28:30.266Z,59.66
2024-05-09T01:28:40.508Z,59.66
2024-05-09T01:28:50.816Z,59.66
2024-05-09T01:29:01.145Z,59.56
2024-05-09T01:29:11.519Z,59.56
2024-05-09T01:29:21.806Z,59.56
2024-05-09T01:29:32.160Z,59.56
2024-05-09T01:29:42.405Z,59.56
2024-05-09T01:29:52.655Z,59.56
2024-05-09T01:30:04.102Z,59.46
2024-05-09T01:30:17.419Z,59.46
2024-05-09T01:30:31.854Z,59.46
2024-05-09T01:30:37.080Z,59.36
2024-05-09T01:30:44.315Z,59.25
2024-05-09T01:30:54.559Z,59.25
2024-05-09T01:31:04.837Z,59.25
2024-05-09T01:31:15.067Z,59.36
2024-05-09T01:31:25.304Z,59.46
2024-05-09T01:31:35.589Z,59.46
2024-05-09T01:31:45.916Z,59.46
2024-05-09T01:31:56.243Z,59.36
2024-05-09T01:32:06.709Z,59.36
2024-05-09T01:32:16.898Z,59.25
2024-05-09T01:32:27.386Z,59.25
2024-05-09T01:32:37.524Z,59.36
2024-05-09T01:32:47.992Z,59.46
2024-05-09T01:32:58.367Z,59.46
2024-05-09T01:33:10.615Z,59.56
2024-05-09T01:33:19.028Z,59.66
2024-05-09T01:33:29.591Z,59.77
2024-05-09T01:33:39.963Z,59.77
2024-05-09T01:33:50.208Z,59.69
2024-05-09T01:34:00.555Z,59.66
2024-05-09T01:34:10.909Z,59.69
2024-05-09T01:34:21.307Z,59.66
2024-05-09T01:34:31.560Z,59.66
2024-05-09T01:34:42.027Z,59.59
2024-05-09T01:34:52.528Z,59.56
2024-05-09T01:35:03.008Z,59.48
2024-05-09T01:35:13.261Z,59.48
2024-05-09T01:35:23.725Z,59.48
2024-05-09T01:35:33.956Z,59.48
2024-05-09T01:35:44.271Z,59.48
2024-05-09T01:35:54.483Z,59.38
2024-05-09T01:36:04.721Z,59.48
2024-05-09T01:36:14.959Z,59.48
2024-05-09T01:36:25.423Z,59.59
2024-05-09T01:36:35.891Z,59.69
2024-05-09T01:36:46.131Z,59.80
2024-05-09T01:36:56.590Z,59.80
2024-05-09T01:37:07.060Z,59.89
2024-05-09T01:37:17.562Z,59.89
2024-05-09T01:37:27.988Z,59.89
2024-05-09T01:37:38.462Z,59.89
2024-05-09T01:37:48.989Z,59.89
2024-05-09T01:37:59.302Z,59.80
2024-05-09T01:38:09.569Z,59.80
2024-05-09T01:38:20.188Z,59.80
2024-05-09T01:38:30.607Z,59.89
2024-05-09T01:38:40.952Z,59.89
2024-05-09T01:38:51.168Z,60.00
2024-05-09T01:39:01.629Z,59.89
2024-05-09T01:39:12.097Z,59.89
2024-05-09T01:39:22.575Z,59.89
2024-05-09T01:39:33.042Z,59.80
2024-05-09T01:39:43.499Z,59.80
2024-05-09T01:39:53.961Z,59.80
2024-05-09T01:40:07.348Z,59.69
2024-05-09T01:40:22.082Z,59.80
2024-05-09T01:40:36.031Z,59.80
2024-05-09T01:40:39.235Z,59.80
2024-05-09T01:40:45.937Z,59.89
2024-05-09T01:40:56.246Z,60.00
2024-05-09T01:41:06.567Z,60.00
2024-05-09T01:41:16.835Z,60.00
2024-05-09T01:41:27.144Z,60.00
2024-05-09T01:41:37.460Z,60.00
2024-05-09T01:41:47.701Z,59.89
2024-05-09T01:41:58.172Z,60.00
2024-05-09T01:42:08.629Z,60.00
2024-05-09T01:42:19.110Z,60.00
2024-05-09T01:42:29.561Z,60.00
2024-05-09T01:42:40.022Z,59.89
2024-05-09T01:42:50.492Z,59.80
2024-05-09T01:43:00.984Z,59.80
2024-05-09T01:43:12.226Z,59.89
2024-05-09T01:43:21.879Z,60.00
2024-05-09T01:43:32.347Z,60.00
2024-05-09T01:43:42.914Z,60.00
2024-05-09T01:43:53.154Z,59.89
2024-05-09T01:44:03.661Z,59.89
2024-05-09T01:44:13.975Z,59.80
2024-05-09T01:44:24.277Z,59.80
2024-05-09T01:44:34.594Z,59.69
2024-05-09T01:44:44.822Z,59.69
2024-05-09T01:44:55.305Z,59.69
2024-05-09T01:45:05.540Z,59.80
2024-05-09T01:45:16.023Z,59.89
2024-05-09T01:45:26.247Z,59.89
2024-05-09T01:45:36.759Z,60.00
2024-05-09T01:45:46.971Z,60.00
2024-05-09T01:45:57.436Z,60.00
2024-05-09T01:46:07.912Z,60.00
2024-05-09T01:46:18.362Z,60.00
2024-05-09T01:46:28.831Z,59.89
2024-05-09T01:46:39.307Z,59.89
2024-05-09T01:46:49.545Z,60.00
2024-05-09T01:47:00.064Z,60.10
2024-05-09T01:47:10.396Z,60.21
2024-05-09T01:47:20.897Z,60.31
2024-05-09T01:47:31.149Z,60.31
2024-05-09T01:47:42.003Z,60.21
2024-05-09T01:47:51.883Z,60.21
2024-05-09T01:48:02.855Z,60.21
2024-05-09T01:48:12.605Z,60.21
2024-05-09T01:48:22.899Z,60.21
2024-05-09T01:48:33.077Z,60.10
2024-05-09T01:48:43.434Z,60.00
2024-05-09T01:48:53.791Z,60.03
2024-05-09T01:49:04.172Z,60.03
2024-05-09T01:49:14.583Z,60.13
2024-05-09T01:49:24.944Z,60.23
2024-05-09T01:49:35.460Z,60.33
2024-05-09T01:49:45.889Z,60.54
2024-05-09T01:49:56.177Z,60.64
2024-05-09T01:50:09.078Z,60.64
2024-05-09T01:50:22.468Z,60.64
2024-05-09T01:50:36.779Z,60.54
2024-05-09T01:50:41.652Z,60.44
2024-05-09T01:50:47.895Z,60.33
2024-05-09T01:50:58.209Z,60.23
2024-05-09T01:51:08.664Z,60.13
2024-05-09T01:51:18.868Z,60.13
2024-05-09T01:51:29.118Z,60.03
2024-05-09T01:51:39.572Z,59.92
2024-05-09T01:51:50.038Z,59.92
2024-05-09T01:52:00.501Z,59.92
2024-05-09T01:52:10.974Z,59.92
2024-05-09T01:52:21.442Z,59.92
2024-05-09T01:52:31.903Z,59.92
2024-05-09T01:52:42.532Z,59.92
2024-05-09T01:52:52.786Z,60.03
2024-05-09T01:53:03.285Z,60.13
2024-05-09T01:53:14.370Z,60.13
2024-05-09T01:53:23.895Z,60.03
2024-05-09T01:53:34.302Z,60.03
2024-05-09T01:53:44.544Z,60.03
2024-05-09T01:53:54.982Z,60.03
2024-05-09T01:54:05.447Z,60.03
2024-05-09T01:54:15.930Z,60.13
2024-05-09T01:54:26.159Z,60.13
2024-05-09T01:54:36.638Z,60.13
2024-05-09T01:54:46.886Z,60.13
2024-05-09T01:54:57.336Z,60.23
2024-05-09T01:55:07.800Z,60.23
2024-05-09T01:55:18.281Z,60.23
2024-05-09T01:55:28.727Z,60.23
2024-05-09T01:55:39.238Z,60.23
2024-05-09T01:55:49.515Z,60.13
2024-05-09T01:55:59.792Z,60.13
2024-05-09T01:56:10.088Z,60.03
2024-05-09T01:56:20.332Z,60.13
2024-05-09T01:56:30.836Z,60.03
2024-05-09T01:56:40.966Z,60.13
2024-05-09T01:56:51.217Z,60.23
2024-05-09T01:57:01.707Z,60.23
2024-05-09T01:57:12.170Z,60.23
2024-05-09T01:57:22.618Z,60.23
2024-05-09T01:57:33.078Z,60.33
2024-05-09T01:57:43.542Z,60.33
2024-05-09T01:57:54.010Z,60.33
2024-05-09T01:58:04.517Z,60.23
2024-05-09T01:58:14.713Z,60.23
2024-05-09T01:58:25.180Z,60.23
2024-05-09T01:58:35.447Z,60.23
2024-05-09T01:58:45.981Z,60.13
2024-05-09T01:58:56.231Z,60.13
2024-05-09T01:59:06.534Z,60.13
2024-05-09T01:59:16.843Z,60.13
2024-05-09T01:59:27.195Z,60.13
2024-05-09T01:59:37.529Z,60.13
2024-05-09T01:59:47.765Z,60.03
2024-05-09T01:59:58.232Z,59.92
2024-05-09T02:00:10.314Z,59.82
2024-05-09T02:00:30.041Z,59.92
2024-05-09T02:00:38.097Z,60.03
2024-05-09T02:00:42.751Z,60.13
2024-05-09T02:00:50.195Z,60.13
2024-05-09T02:01:00.702Z,60.13
2024-05-09T02:01:10.956Z,60.13
2024-05-09T02:01:21.197Z,60.16
2024-05-09T02:01:55.287Z,60.16
2024-05-09T02:01:56.185Z,60.13
2024-05-09T02:01:56.948Z,60.13
2024-05-09T02:02:02.783Z,60.16
2024-05-09T02:02:12.997Z,60.16
2024-05-09T02:02:23.447Z,60.16
2024-05-09T02:02:33.881Z,60.16
2024-05-09T02:02:44.200Z,60.16
2024-05-09T02:02:54.586Z,60.16
2024-05-09T02:03:04.908Z,60.16
2024-05-09T02:03:17.250Z,60.16
2024-05-09T02:03:27.530Z,60.05
2024-05-09T02:03:35.696Z,60.05
2024-05-09T02:03:45.932Z,60.05
2024-05-09T02:03:56.163Z,59.95
2024-05-09T02:04:06.956Z,59.95
2024-05-09T02:04:17.014Z,59.95
2024-05-09T02:04:37.800Z,60.16
2024-05-09T02:04:48.188Z,60.05
2024-05-09T02:04:58.518Z,60.05
2024-05-09T02:05:08.889Z,59.95
2024-05-09T02:05:19.332Z,60.05
2024-05-09T02:05:29.669Z,60.05
2024-05-09T02:05:40.154Z,60.05
2024-05-09T02:05:50.513Z,60.05
2024-05-09T02:06:00.620Z,60.05
2024-05-09T02:06:11.001Z,60.16
2024-05-09T02:06:21.171Z,60.16
2024-05-09T02:06:31.633Z,60.16
2024-05-09T02:06:42.104Z,60.05
2024-05-09T02:06:52.567Z,60.05
2024-05-09T02:07:03.039Z,60.05
2024-05-09T02:07:13.507Z,59.95
2024-05-09T02:07:23.970Z,59.95
2024-05-09T02:07:34.225Z,59.95
2024-05-09T02:07:44.793Z,59.95
2024-05-09T02:07:55.089Z,59.95
2024-05-09T02:08:05.381Z,59.95
2024-05-09T02:08:15.904Z,60.05
2024-05-09T02:08:26.108Z,60.05
2024-05-09T02:08:36.368Z,60.05
2024-05-09T02:08:46.583Z,59.95
2024-05-09T02:08:57.054Z,59.95
2024-05-09T02:09:07.511Z,59.95
2024-05-09T02:09:17.983Z,60.05
2024-05-09T02:09:28.494Z,60.05
2024-05-09T02:09:38.728Z,60.05
2024-05-09T02:09:49.214Z,60.05
2024-05-09T02:09:59.660Z,60.16
2024-05-09T02:10:16.499Z,60.16
2024-05-09T02:10:26.496Z,60.16
2024-05-09T02:10:33.051Z,60.05
2024-05-09T02:10:41.243Z,60.05
2024-05-09T02:10:51.651Z,60.05
2024-05-09T02:11:01.872Z,59.95
2024-05-09T02:11:12.155Z,59.95
2024-05-09T02:11:22.297Z,59.95
2024-05-09T02:11:32.571Z,59.95
2024-05-09T02:11:42.964Z,59.95
2024-05-09T02:11:53.418Z,59.95
2024-05-09T02:12:03.782Z,59.95
2024-05-09T02:12:14.104Z,59.95
2024-05-09T02:12:24.454Z,60.05
2024-05-09T02:12:34.763Z,60.05
2024-05-09T02:12:44.959Z,60.05
2024-05-09T02:12:55.445Z,60.05
2024-05-09T02:13:05.688Z,60.16
2024-05-09T02:13:16.543Z,60.16
2024-05-09T02:13:26.259Z,60.16
2024-05-09T02:13:36.743Z,60.16
2024-05-09T02:13:47.205Z,60.16
2024-05-09T02:13:57.477Z,60.16